createdAt,value
2022-10-16T00:01:28.969Z,23.26
2022-10-16T00:03:30.425Z,23.25
2022-10-16T00:05:28.990Z,23.25
2022-10-16T00:07:29.033Z,22.72
2022-10-16T00:09:28.999Z,23.15
2022-10-16T00:11:28.985Z,23.11
2022-10-16T00:13:28.944Z,23.20
2022-10-16T00:15:29.044Z,22.94
2022-10-16T00:17:28.953Z,23.00
2022-10-16T00:19:29.036Z,23.13
2022-10-16T00:21:29.073Z,23.25
2022-10-16T00:23:28.950Z,22.76
2022-10-16T00:25:29.050Z,23.29
2022-10-16T00:27:29.031Z,23.10
2022-10-16T00:29:29.061Z,23.36
2022-10-16T00:31:28.923Z,22.95
2022-10-16T00:33:28.977Z,22.59
2022-10-16T00:35:28.908Z,23.13
2022-10-16T00:37:28.943Z,23.23
2022-10-16T00:39:29.089Z,23.26
2022-10-16T00:41:29.047Z,22.82
2022-10-16T00:43:29.072Z,23.39
2022-10-16T00:45:29.093Z,23.39
2022-10-16T00:47:28.945Z,23.39
2022-10-16T00:49:28.927Z,23.27
2022-10-16T00:51:29.038Z,23.25
2022-10-16T00:53:29.062Z,23.20
2022-10-16T00:55:29.031Z,22.99
2022-10-16T00:57:29.085Z,23.24
2022-10-16T00:59:29.039Z,23.26
2022-10-16T01:01:29.163Z,23.10
2022-10-16T01:03:29.079Z,22.72
2022-10-16T01:05:28.945Z,23.19
2022-10-16T01:07:29.293Z,23.20
2022-10-16T01:09:29.120Z,23.11
2022-10-16T01:11:29.120Z,23.01
2022-10-16T01:13:29.096Z,23.26
2022-10-16T01:15:29.177Z,23.19
2022-10-16T01:17:29.242Z,23.23
2022-10-16T01:19:29.154Z,23.11
2022-10-16T01:21:29.038Z,22.83
2022-10-16T01:23:29.145Z,22.59
2022-10-16T01:25:28.983Z,22.96
2022-10-16T01:27:29.627Z,22.97
2022-10-16T01:29:29.163Z,23.26
2022-10-16T01:31:29.152Z,23.03
2022-10-16T01:33:29.083Z,23.12
2022-10-16T01:35:29.139Z,22.95
2022-10-16T01:37:29.385Z,22.99
2022-10-16T01:39:29.220Z,22.66
2022-10-16T01:41:29.136Z,23.22
2022-10-16T01:43:29.231Z,23.02
2022-10-16T01:45:29.163Z,23.02
2022-10-16T01:47:29.370Z,22.96
2022-10-16T01:49:29.246Z,23.06
2022-10-16T01:51:29.181Z,23.11
2022-10-16T01:53:29.321Z,23.16
2022-10-16T01:55:29.108Z,22.70
2022-10-16T01:57:29.091Z,22.76
2022-10-16T01:59:29.121Z,23.01
2022-10-16T02:01:29.084Z,22.88
2022-10-16T02:03:29.107Z,22.98
2022-10-16T02:05:29.182Z,22.67
2022-10-16T02:07:29.078Z,22.88
2022-10-16T02:09:29.176Z,22.97
2022-10-16T02:11:29.076Z,23.05
2022-10-16T02:13:29.184Z,23.03
2022-10-16T02:15:29.213Z,23.02
2022-10-16T02:17:29.208Z,23.19
2022-10-16T02:19:29.234Z,23.11
2022-10-16T02:21:29.169Z,23.10
2022-10-16T02:23:29.142Z,22.88
2022-10-16T02:25:29.098Z,22.97
2022-10-16T02:27:29.172Z,22.95
2022-10-16T02:29:29.045Z,22.99
2022-10-16T02:31:29.094Z,22.62
2022-10-16T02:33:29.219Z,23.11
2022-10-16T02:35:29.061Z,23.15
2022-10-16T02:37:29.238Z,23.18
2022-10-16T02:39:29.180Z,23.12
2022-10-16T02:41:29.169Z,23.06
2022-10-16T02:43:29.223Z,23.17
2022-10-16T02:45:29.164Z,23.06
2022-10-16T02:47:29.160Z,22.60
2022-10-16T02:49:29.217Z,23.03
2022-10-16T02:51:29.192Z,22.51
2022-10-16T02:53:29.186Z,23.03
2022-10-16T02:55:29.206Z,23.12
2022-10-16T02:57:29.406Z,23.15
2022-10-16T02:59:29.217Z,23.15
2022-10-16T03:01:29.277Z,23.22
2022-10-16T03:03:29.260Z,23.17
2022-10-16T03:05:29.142Z,22.67
2022-10-16T03:07:29.363Z,22.71
2022-10-16T03:09:29.225Z,22.68
2022-10-16T03:11:29.202Z,23.03
2022-10-16T03:13:29.257Z,23.02
2022-10-16T03:15:29.250Z,22.74
2022-10-16T03:17:29.555Z,23.13
2022-10-16T03:19:29.163Z,23.10
2022-10-16T03:21:29.250Z,23.10
2022-10-16T03:25:29.220Z,23.22
2022-10-16T03:27:29.616Z,23.12
2022-10-16T03:29:29.255Z,23.25
2022-10-16T03:31:29.290Z,23.15
2022-10-16T03:33:29.142Z,23.18
2022-10-16T03:35:29.218Z,23.19
2022-10-16T03:37:29.477Z,23.14
2022-10-16T03:39:29.289Z,23.11
2022-10-16T03:41:29.270Z,23.12
2022-10-16T03:43:29.186Z,23.12
2022-10-16T03:45:29.256Z,23.15
2022-10-16T03:47:29.445Z,23.10
2022-10-16T03:49:29.120Z,23.14
2022-10-16T03:51:29.322Z,23.12
2022-10-16T03:53:29.265Z,23.15
2022-10-16T03:55:29.188Z,23.16
2022-10-16T03:57:29.651Z,23.17
2022-10-16T03:59:29.358Z,23.10
2022-10-16T04:01:29.260Z,22.92
2022-10-16T04:03:29.304Z,22.91
2022-10-16T04:05:29.314Z,22.95
2022-10-16T04:07:29.418Z,22.81
2022-10-16T04:09:29.323Z,22.92
2022-10-16T04:11:29.289Z,22.94
2022-10-16T04:13:29.281Z,22.87
2022-10-16T04:15:29.326Z,22.94
2022-10-16T04:17:29.441Z,22.87
2022-10-16T04:19:29.334Z,22.96
2022-10-16T04:21:29.270Z,22.81
2022-10-16T04:23:29.239Z,22.89
2022-10-16T04:25:29.323Z,22.88
2022-10-16T04:27:29.664Z,22.88
2022-10-16T04:29:29.275Z,22.86
2022-10-16T04:31:29.341Z,23.16
2022-10-16T04:33:29.318Z,23.09
2022-10-16T04:35:29.330Z,23.05
2022-10-16T04:37:29.543Z,23.09
2022-10-16T04:39:29.233Z,23.04
2022-10-16T04:41:29.314Z,23.03
2022-10-16T04:45:29.347Z,23.09
2022-10-16T04:47:29.616Z,23.04
2022-10-16T04:49:29.367Z,23.07
2022-10-16T04:51:29.369Z,23.06
2022-10-16T04:53:29.364Z,23.02
2022-10-16T04:55:29.360Z,23.08
2022-10-16T04:57:32.153Z,23.03
2022-10-16T04:59:29.262Z,22.90
2022-10-16T05:01:29.327Z,23.05
2022-10-16T05:05:29.348Z,23.05
2022-10-16T05:07:29.565Z,23.06
2022-10-16T05:09:29.277Z,23.02
2022-10-16T05:11:29.278Z,23.13
2022-10-16T05:13:29.342Z,23.06
2022-10-16T05:15:29.340Z,23.05
2022-10-16T05:17:29.626Z,23.08
2022-10-16T05:19:29.447Z,23.03
2022-10-16T05:21:29.397Z,23.01
2022-10-16T05:23:29.509Z,22.99
2022-10-16T05:25:29.432Z,22.99
2022-10-16T05:27:29.539Z,22.98
2022-10-16T05:29:29.313Z,23.01
2022-10-16T05:31:29.368Z,22.98
2022-10-16T05:33:29.444Z,22.96
2022-10-16T05:35:29.257Z,22.96
2022-10-16T05:37:29.525Z,23.03
2022-10-16T05:39:29.418Z,22.96
2022-10-16T05:41:30.327Z,22.96
2022-10-16T05:43:29.328Z,22.96
2022-10-16T05:45:29.401Z,22.79
2022-10-16T05:47:29.666Z,22.98
2022-10-16T05:49:29.418Z,22.87
2022-10-16T05:51:29.419Z,22.68
2022-10-16T05:53:29.378Z,22.93
2022-10-16T05:55:29.420Z,22.80
2022-10-16T05:57:29.581Z,22.60
2022-10-16T05:59:29.343Z,22.72
2022-10-16T06:01:29.354Z,23.05
2022-10-16T06:03:29.433Z,22.78
2022-10-16T06:05:29.412Z,22.87
2022-10-16T06:07:29.704Z,22.81
2022-10-16T06:09:29.334Z,22.20
2022-10-16T06:11:29.438Z,22.83
2022-10-16T06:13:29.415Z,22.87
2022-10-16T06:15:29.504Z,22.46
2022-10-16T06:17:29.606Z,22.84
2022-10-16T06:19:29.399Z,22.85
2022-10-16T06:21:29.419Z,23.05
2022-10-16T06:23:29.438Z,22.75
2022-10-16T06:25:29.376Z,22.91
2022-10-16T06:27:29.532Z,22.44
2022-10-16T06:29:29.466Z,22.96
2022-10-16T06:31:29.383Z,22.86
2022-10-16T06:33:29.472Z,22.88
2022-10-16T06:35:30.513Z,23.05
2022-10-16T06:37:29.509Z,22.74
2022-10-16T06:39:29.468Z,22.96
2022-10-16T06:41:29.465Z,22.52
2022-10-16T06:43:29.353Z,23.02
2022-10-16T06:45:29.341Z,22.94
2022-10-16T06:47:29.490Z,22.92
2022-10-16T06:49:29.468Z,22.82
2022-10-16T06:51:30.500Z,23.06
2022-10-16T06:53:29.390Z,22.97
2022-10-16T06:55:29.506Z,22.87
2022-10-16T06:57:29.442Z,22.48
2022-10-16T06:59:29.464Z,22.92
2022-10-16T07:01:29.350Z,22.66
2022-10-16T07:03:29.494Z,22.46
2022-10-16T07:05:29.373Z,22.52
2022-10-16T07:07:29.570Z,23.05
2022-10-16T07:11:29.513Z,22.54
2022-10-16T07:13:29.491Z,22.96
2022-10-16T07:15:29.500Z,23.03
2022-10-16T07:17:29.512Z,22.97
2022-10-16T07:19:33.446Z,23.07
2022-10-16T07:21:30.583Z,22.84
2022-10-16T07:23:29.532Z,23.03
2022-10-16T07:25:29.540Z,23.10
2022-10-16T07:27:29.529Z,23.28
2022-10-16T07:29:29.550Z,23.37
2022-10-16T07:31:29.489Z,23.49
2022-10-16T07:33:29.455Z,23.53
2022-10-16T07:35:29.573Z,23.59
2022-10-16T07:37:29.737Z,23.75
2022-10-16T07:39:29.539Z,24.10
2022-10-16T07:41:29.374Z,23.65
2022-10-16T07:43:29.621Z,23.87
2022-10-16T07:45:29.532Z,24.16
2022-10-16T07:47:29.727Z,24.14
2022-10-16T07:49:29.554Z,24.23
2022-10-16T07:51:29.558Z,23.75
2022-10-16T07:53:29.596Z,23.65
2022-10-16T07:55:29.541Z,24.19
2022-10-16T07:57:29.557Z,24.12
2022-10-16T07:59:29.630Z,24.18
2022-10-16T08:01:29.614Z,24.31
2022-10-16T08:03:29.519Z,24.20
2022-10-16T08:05:29.545Z,24.62
2022-10-16T08:07:29.577Z,24.70
2022-10-16T08:09:29.689Z,24.62
2022-10-16T08:11:29.549Z,24.09
2022-10-16T08:13:29.593Z,24.18
2022-10-16T08:15:29.559Z,24.12
2022-10-16T08:17:29.754Z,24.38
2022-10-16T08:19:29.637Z,24.61
2022-10-16T08:21:29.610Z,24.61
2022-10-16T08:23:29.582Z,25.09
2022-10-16T08:25:29.709Z,24.46
2022-10-16T08:27:29.706Z,24.74
2022-10-16T08:29:29.570Z,24.66
2022-10-16T08:31:29.618Z,25.47
2022-10-16T08:33:29.593Z,24.75
2022-10-16T08:35:32.617Z,24.95
2022-10-16T08:37:29.578Z,25.14
2022-10-16T08:39:29.560Z,24.90
2022-10-16T08:41:29.602Z,25.14
2022-10-16T08:43:29.617Z,24.66
2022-10-16T08:45:29.588Z,24.27
2022-10-16T08:47:29.820Z,24.55
2022-10-16T08:49:29.705Z,24.44
2022-10-16T08:51:29.598Z,24.62
2022-10-16T08:53:29.536Z,24.34
2022-10-16T08:55:29.517Z,24.37
2022-10-16T08:57:29.638Z,24.78
2022-10-16T08:59:29.657Z,24.66
2022-10-16T09:01:29.644Z,24.48
2022-10-16T09:03:29.630Z,24.55
2022-10-16T09:05:29.631Z,24.53
2022-10-16T09:07:29.708Z,24.51
2022-10-16T09:09:29.577Z,24.76
2022-10-16T09:11:29.669Z,24.51
2022-10-16T09:13:29.665Z,24.66
2022-10-16T09:15:29.632Z,24.66
2022-10-16T09:17:29.811Z,24.17
2022-10-16T09:19:29.476Z,24.41
2022-10-16T09:21:29.596Z,24.51
2022-10-16T09:23:29.718Z,24.66
2022-10-16T09:25:29.562Z,24.92
2022-10-16T09:27:29.935Z,25.12
2022-10-16T09:29:29.657Z,25.18
2022-10-16T09:31:29.612Z,25.19
2022-10-16T09:33:29.679Z,24.76
2022-10-16T09:37:29.996Z,25.78
2022-10-16T09:39:29.715Z,25.12
2022-10-16T09:41:29.579Z,25.99
2022-10-16T09:43:29.670Z,25.12
2022-10-16T09:45:29.702Z,24.73
2022-10-16T09:47:29.936Z,24.74
2022-10-16T09:49:29.737Z,27.05
2022-10-16T09:51:29.594Z,26.57
2022-10-16T09:53:29.535Z,26.75
2022-10-16T09:55:29.522Z,26.11
2022-10-16T09:57:30.117Z,27.42
2022-10-16T09:59:29.705Z,26.98
2022-10-16T10:01:29.683Z,26.64
2022-10-16T10:03:29.656Z,25.12
2022-10-16T10:05:29.681Z,24.82
2022-10-16T10:07:29.959Z,24.97
2022-10-16T10:09:30.360Z,24.18
2022-10-16T10:11:29.644Z,24.95
2022-10-16T10:13:29.830Z,26.79
2022-10-16T10:15:29.638Z,27.50
2022-10-16T10:17:29.712Z,27.20
2022-10-16T10:19:32.774Z,25.79
2022-10-16T10:21:29.684Z,27.20
2022-10-16T10:23:29.869Z,27.08
2022-10-16T10:25:29.722Z,27.21
2022-10-16T10:27:29.719Z,27.20
2022-10-16T10:29:29.776Z,26.75
2022-10-16T10:31:29.720Z,27.03
2022-10-16T10:33:29.845Z,27.06
2022-10-16T10:35:29.663Z,27.30
2022-10-16T10:37:29.720Z,27.46
2022-10-16T10:39:29.646Z,26.36
2022-10-16T10:41:31.406Z,25.95
2022-10-16T10:43:29.954Z,27.44
2022-10-16T10:45:29.770Z,24.77
2022-10-16T10:47:29.710Z,27.50
2022-10-16T10:49:29.725Z,27.52
2022-10-16T10:51:29.752Z,27.59
2022-10-16T10:53:29.641Z,27.40
2022-10-16T10:55:29.719Z,26.05
2022-10-16T10:57:29.807Z,27.31
2022-10-16T10:59:29.752Z,26.70
2022-10-16T11:01:29.783Z,26.45
2022-10-16T11:03:29.760Z,26.75
2022-10-16T11:05:29.990Z,25.23
2022-10-16T11:07:30.007Z,26.68
2022-10-16T11:09:29.738Z,27.52
2022-10-16T11:11:29.759Z,26.79
2022-10-16T11:13:29.711Z,27.46
2022-10-16T11:15:29.755Z,25.15
2022-10-16T11:17:30.834Z,24.68
2022-10-16T11:19:29.699Z,26.93
2022-10-16T11:21:31.331Z,27.01
2022-10-16T11:23:29.861Z,27.31
2022-10-16T11:25:29.792Z,27.31
2022-10-16T11:27:29.921Z,26.65
2022-10-16T11:29:29.835Z,26.39
2022-10-16T11:31:29.677Z,27.60
2022-10-16T11:33:29.792Z,27.59
2022-10-16T11:35:29.703Z,25.47
2022-10-16T11:37:29.975Z,26.91
2022-10-16T11:39:29.708Z,25.46
2022-10-16T11:41:29.740Z,24.69
2022-10-16T11:43:29.709Z,25.40
2022-10-16T11:45:29.726Z,26.61
2022-10-16T11:49:32.805Z,27.45
2022-10-16T11:51:29.714Z,25.83
2022-10-16T11:53:29.790Z,27.28
2022-10-16T11:55:29.817Z,26.53
2022-10-16T11:57:30.175Z,24.66
2022-10-16T11:59:29.779Z,25.52
2022-10-16T12:01:29.782Z,24.85
2022-10-16T12:03:29.835Z,25.44
2022-10-16T12:05:29.772Z,25.27
2022-10-16T12:07:29.844Z,26.78
2022-10-16T12:09:29.709Z,26.76
2022-10-16T12:11:29.829Z,26.61
2022-10-16T12:13:29.891Z,27.08
2022-10-16T12:15:57.590Z,26.70
2022-10-16T12:17:29.872Z,26.30
2022-10-16T12:19:29.824Z,25.22
2022-10-16T12:21:29.859Z,24.67
2022-10-16T12:23:30.911Z,24.66
2022-10-16T12:25:29.856Z,25.51
2022-10-16T12:27:29.798Z,25.60
2022-10-16T12:29:29.703Z,25.29
2022-10-16T12:31:29.697Z,27.22
2022-10-16T12:33:29.834Z,26.80
2022-10-16T12:35:30.608Z,27.44
2022-10-16T12:37:30.787Z,26.93
2022-10-16T12:39:29.693Z,26.98
2022-10-16T12:41:29.809Z,24.59
2022-10-16T12:43:30.135Z,24.80
2022-10-16T12:45:29.700Z,25.19
2022-10-16T12:47:29.872Z,24.69
2022-10-16T12:49:29.882Z,25.43
2022-10-16T12:51:29.717Z,24.76
2022-10-16T12:53:29.809Z,24.71
2022-10-16T12:55:29.738Z,26.67
2022-10-16T12:57:30.189Z,26.79
2022-10-16T12:59:29.773Z,26.63
2022-10-16T13:01:29.794Z,25.17
2022-10-16T13:03:29.848Z,26.37
2022-10-16T13:05:29.897Z,25.52
2022-10-16T13:07:30.060Z,24.67
2022-10-16T13:09:29.787Z,25.57
2022-10-16T13:11:29.890Z,25.36
2022-10-16T13:13:29.911Z,25.06
2022-10-16T13:15:29.838Z,25.29
2022-10-16T13:17:29.919Z,24.74
2022-10-16T13:19:29.775Z,25.19
2022-10-16T13:21:29.865Z,25.01
2022-10-16T13:23:29.906Z,24.69
2022-10-16T13:25:29.788Z,26.47
2022-10-16T13:27:30.123Z,25.05
2022-10-16T13:29:29.956Z,24.68
2022-10-16T13:31:29.880Z,25.51
2022-10-16T13:33:29.816Z,24.69
2022-10-16T13:35:29.926Z,24.84
2022-10-16T13:37:30.047Z,24.67
2022-10-16T13:39:29.950Z,25.53
2022-10-16T13:41:29.838Z,24.71
2022-10-16T13:43:29.808Z,24.79
2022-10-16T13:45:29.943Z,25.09
2022-10-16T13:47:30.352Z,25.08
2022-10-16T13:49:29.858Z,25.14
2022-10-16T13:51:29.822Z,25.18
2022-10-16T13:53:29.908Z,24.93
2022-10-16T13:55:29.964Z,25.29
2022-10-16T13:57:29.948Z,25.06
2022-10-16T13:59:29.939Z,24.69
2022-10-16T14:01:32.520Z,25.39
2022-10-16T14:03:29.973Z,25.53
2022-10-16T14:05:29.818Z,25.53
2022-10-16T14:07:29.832Z,25.19
2022-10-16T14:09:29.951Z,24.78
2022-10-16T14:11:29.969Z,25.10
2022-10-16T14:13:29.978Z,24.25
2022-10-16T14:15:29.975Z,24.25
2022-10-16T14:17:29.808Z,23.84
2022-10-16T14:19:30.007Z,24.44
2022-10-16T14:21:29.965Z,24.59
2022-10-16T14:23:29.937Z,24.44
2022-10-16T14:25:29.963Z,23.66
2022-10-16T14:27:29.954Z,24.47
2022-10-16T14:29:29.846Z,24.41
2022-10-16T14:31:29.903Z,24.33
2022-10-16T14:33:29.972Z,24.12
2022-10-16T14:35:29.951Z,23.94
2022-10-16T14:37:30.288Z,23.53
2022-10-16T14:39:29.887Z,24.16
2022-10-16T14:41:30.012Z,23.73
2022-10-16T14:43:29.976Z,24.25
2022-10-16T14:45:29.944Z,24.25
2022-10-16T14:47:30.714Z,24.20
2022-10-16T14:49:29.983Z,24.37
2022-10-16T14:51:30.014Z,24.27
2022-10-16T14:53:30.030Z,24.26
2022-10-16T14:55:29.996Z,24.38
2022-10-16T14:57:30.427Z,24.58
2022-10-16T14:59:29.858Z,24.66
2022-10-16T15:01:29.986Z,24.62
2022-10-16T15:03:30.093Z,24.66
2022-10-16T15:05:30.040Z,24.60
2022-10-16T15:07:30.127Z,24.66
2022-10-16T15:09:30.041Z,24.64
2022-10-16T15:11:30.106Z,24.66
2022-10-16T15:13:29.928Z,24.54
2022-10-16T15:15:29.933Z,24.58
2022-10-16T15:17:30.183Z,24.44
2022-10-16T15:19:29.958Z,24.10
2022-10-16T15:21:30.054Z,24.61
2022-10-16T15:23:30.144Z,24.62
2022-10-16T15:25:30.015Z,24.53
2022-10-16T15:27:30.029Z,24.74
2022-10-16T15:29:30.058Z,24.64
2022-10-16T15:31:29.927Z,24.61
2022-10-16T15:33:33.275Z,24.57
2022-10-16T15:35:30.045Z,24.67
2022-10-16T15:37:30.011Z,24.67
2022-10-16T15:39:29.988Z,24.66
2022-10-16T15:41:30.174Z,24.68
2022-10-16T15:43:30.053Z,24.75
2022-10-16T15:45:30.104Z,24.83
2022-10-16T15:47:29.985Z,24.96
2022-10-16T15:49:30.128Z,24.90
2022-10-16T15:51:30.078Z,24.73
2022-10-16T15:53:30.038Z,24.82
2022-10-16T15:55:30.206Z,24.82
2022-10-16T15:57:30.211Z,24.82
2022-10-16T15:59:30.058Z,24.86
2022-10-16T16:01:30.032Z,24.69
2022-10-16T16:03:30.098Z,24.66
2022-10-16T16:05:30.079Z,24.54
2022-10-16T16:07:30.077Z,24.63
2022-10-16T16:09:30.089Z,24.59
2022-10-16T16:11:30.002Z,24.57
2022-10-16T16:13:30.043Z,24.66
2022-10-16T16:15:30.175Z,24.62
2022-10-16T16:17:30.003Z,24.64
2022-10-16T16:19:29.953Z,24.58
2022-10-16T16:21:30.087Z,24.34
2022-10-16T16:23:30.125Z,24.43
2022-10-16T16:25:30.147Z,24.44
2022-10-16T16:27:30.351Z,23.66
2022-10-16T16:29:30.101Z,24.53
2022-10-16T16:31:30.118Z,23.61
2022-10-16T16:33:30.353Z,24.26
2022-10-16T16:35:30.108Z,23.53
2022-10-16T16:37:30.410Z,24.34
2022-10-16T16:39:30.000Z,24.41
2022-10-16T16:41:30.166Z,24.25
2022-10-16T16:43:30.077Z,24.23
2022-10-16T16:45:30.149Z,24.10
2022-10-16T16:47:30.359Z,23.80
2022-10-16T16:49:30.126Z,24.43
2022-10-16T16:51:30.936Z,23.43
2022-10-16T16:53:30.162Z,24.43
2022-10-16T16:55:30.146Z,23.84
2022-10-16T16:57:30.371Z,27.10
2022-10-16T16:59:30.217Z,26.84
2022-10-16T17:01:30.281Z,27.19
2022-10-16T17:03:30.051Z,27.06
2022-10-16T17:05:30.138Z,25.28
2022-10-16T17:07:30.676Z,26.14
2022-10-16T17:09:30.172Z,26.08
2022-10-16T17:11:30.184Z,26.16
2022-10-16T17:13:30.188Z,26.20
2022-10-16T17:15:30.407Z,25.94
2022-10-16T17:17:30.411Z,26.06
2022-10-16T17:19:30.289Z,26.22
2022-10-16T17:21:30.245Z,26.22
2022-10-16T17:23:30.021Z,26.19
2022-10-16T17:25:32.008Z,26.09
2022-10-16T17:27:30.228Z,25.72
2022-10-16T17:29:30.319Z,25.58
2022-10-16T17:31:30.182Z,26.02
2022-10-16T17:33:30.126Z,25.52
2022-10-16T17:35:30.167Z,25.50
2022-10-16T17:37:30.214Z,25.12
2022-10-16T17:39:30.183Z,25.79
2022-10-16T17:41:30.213Z,25.93
2022-10-16T17:43:30.147Z,25.94
2022-10-16T17:45:30.128Z,25.26
2022-10-16T17:47:30.075Z,25.45
2022-10-16T17:49:30.175Z,25.44
2022-10-16T17:51:30.206Z,25.92
2022-10-16T17:53:30.196Z,25.15
2022-10-16T17:55:30.236Z,26.04
2022-10-16T17:57:30.102Z,25.09
2022-10-16T17:59:30.122Z,25.14
2022-10-16T18:01:30.274Z,25.32
2022-10-16T18:03:30.105Z,26.08
2022-10-16T18:05:30.086Z,25.83
2022-10-16T18:07:30.274Z,25.95
2022-10-16T18:09:30.071Z,25.83
2022-10-16T18:11:30.235Z,25.06
2022-10-16T18:13:30.268Z,24.98
2022-10-16T18:15:30.211Z,25.07
2022-10-16T18:17:30.248Z,24.95
2022-10-16T18:19:30.248Z,25.15
2022-10-16T18:21:30.190Z,25.64
2022-10-16T18:23:30.267Z,24.98
2022-10-16T18:25:30.237Z,25.71
2022-10-16T18:27:30.312Z,25.30
2022-10-16T18:29:30.185Z,25.62
2022-10-16T18:31:30.327Z,25.28
2022-10-16T18:33:30.260Z,25.26
2022-10-16T18:35:30.298Z,25.39
2022-10-16T18:37:30.673Z,25.27
2022-10-16T18:39:30.213Z,25.08
2022-10-16T18:41:30.154Z,25.19
2022-10-16T18:43:30.601Z,25.24
2022-10-16T18:45:30.239Z,25.91
2022-10-16T18:47:30.391Z,25.19
2022-10-16T18:49:30.265Z,25.10
2022-10-16T18:51:30.303Z,25.44
2022-10-16T18:53:30.305Z,26.04
2022-10-16T18:55:31.021Z,25.44
2022-10-16T18:57:30.672Z,26.09
2022-10-16T18:59:30.290Z,26.07
2022-10-16T19:01:30.363Z,25.38
2022-10-16T19:03:30.280Z,25.36
2022-10-16T19:05:30.313Z,25.18
2022-10-16T19:07:30.508Z,25.28
2022-10-16T19:09:30.286Z,25.15
2022-10-16T19:11:30.294Z,25.28
2022-10-16T19:13:30.199Z,25.28
2022-10-16T19:15:30.333Z,25.22
2022-10-16T19:17:30.182Z,25.83
2022-10-16T19:19:30.307Z,25.50
2022-10-16T19:21:30.376Z,26.00
2022-10-16T19:23:30.198Z,26.10
2022-10-16T19:25:30.311Z,26.16
2022-10-16T19:27:30.297Z,26.14
2022-10-16T19:29:30.206Z,26.14
2022-10-16T19:31:30.307Z,26.11
2022-10-16T19:33:30.370Z,26.07
2022-10-16T19:35:30.355Z,25.37
2022-10-16T19:37:30.290Z,25.43
2022-10-16T19:39:30.332Z,25.83
2022-10-16T19:41:30.396Z,25.94
2022-10-16T19:43:30.321Z,25.08
2022-10-16T19:45:30.333Z,25.29
2022-10-16T19:47:30.449Z,25.84
2022-10-16T19:49:30.380Z,25.58
2022-10-16T19:51:30.326Z,25.45
2022-10-16T19:53:30.313Z,25.51
2022-10-16T19:55:30.353Z,25.74
2022-10-16T19:57:30.658Z,25.43
2022-10-16T19:59:30.353Z,25.37
2022-10-16T20:01:30.313Z,25.84
2022-10-16T20:03:30.331Z,25.33
2022-10-16T20:05:30.357Z,25.10
2022-10-16T20:07:32.741Z,25.37
2022-10-16T20:09:30.370Z,25.64
2022-10-16T20:11:30.330Z,25.88
2022-10-16T20:13:30.332Z,25.44
2022-10-16T20:15:30.183Z,25.27
2022-10-16T20:17:30.535Z,25.56
2022-10-16T20:19:30.368Z,25.52
2022-10-16T20:21:30.287Z,26.08
2022-10-16T20:23:30.373Z,25.94
2022-10-16T20:25:30.614Z,25.60
2022-10-16T20:27:30.782Z,25.91
2022-10-16T20:29:30.323Z,25.53
2022-10-16T20:31:30.419Z,25.77
2022-10-16T20:33:30.384Z,25.59
2022-10-16T20:35:30.368Z,26.13
2022-10-16T20:37:30.418Z,26.08
2022-10-16T20:39:30.359Z,25.97
2022-10-16T20:41:30.371Z,26.04
2022-10-16T20:43:30.493Z,25.58
2022-10-16T20:45:30.491Z,25.61
2022-10-16T20:47:30.497Z,25.65
2022-10-16T20:49:40.279Z,25.50
2022-10-16T20:51:30.392Z,25.79
2022-10-16T20:53:30.349Z,25.99
2022-10-16T20:55:30.408Z,25.55
2022-10-16T20:57:30.648Z,25.42
2022-10-16T20:59:30.416Z,25.61
2022-10-16T21:01:30.545Z,26.00
2022-10-16T21:03:30.393Z,25.53
2022-10-16T21:05:30.450Z,25.63
2022-10-16T21:07:30.527Z,25.65
2022-10-16T21:09:30.431Z,25.65
2022-10-16T21:11:30.389Z,25.52
2022-10-16T21:13:30.733Z,25.52
2022-10-16T21:15:30.448Z,25.99
2022-10-16T21:17:30.420Z,25.97
2022-10-16T21:19:30.485Z,26.08
2022-10-16T21:21:30.470Z,25.72
2022-10-16T21:23:31.271Z,25.63
2022-10-16T21:25:30.421Z,26.04
2022-10-16T21:27:30.319Z,25.97
2022-10-16T21:29:30.432Z,25.52
2022-10-16T21:31:30.503Z,25.58
2022-10-16T21:33:30.467Z,25.86
2022-10-16T21:35:30.300Z,26.08
2022-10-16T21:37:30.482Z,25.53
2022-10-16T21:39:30.409Z,25.96
2022-10-16T21:41:30.457Z,26.18
2022-10-16T21:43:30.381Z,25.91
2022-10-16T21:45:30.293Z,26.11
2022-10-16T21:47:30.446Z,26.04
2022-10-16T21:49:30.444Z,25.44
2022-10-16T21:51:30.356Z,25.96
2022-10-16T21:53:30.484Z,26.07
2022-10-16T21:55:30.319Z,25.93
2022-10-16T21:57:30.556Z,25.93
2022-10-16T21:59:30.556Z,25.78
2022-10-16T22:01:30.527Z,25.54
2022-10-16T22:03:30.471Z,25.50
2022-10-16T22:05:30.390Z,25.74
2022-10-16T22:07:30.596Z,25.56
2022-10-16T22:09:30.415Z,25.50
2022-10-16T22:11:30.520Z,25.65
2022-10-16T22:13:30.406Z,25.47
2022-10-16T22:15:30.398Z,25.52
2022-10-16T22:17:31.488Z,25.49
2022-10-16T22:19:30.389Z,26.02
2022-10-16T22:21:30.462Z,25.47
2022-10-16T22:23:30.464Z,25.77
2022-10-16T22:25:30.513Z,25.75
2022-10-16T22:27:30.730Z,25.80
2022-10-16T22:29:30.512Z,25.81
2022-10-16T22:31:30.494Z,25.65
2022-10-16T22:33:30.591Z,25.74
2022-10-16T22:35:30.527Z,25.99
2022-10-16T22:37:30.887Z,25.97
2022-10-16T22:39:30.524Z,25.65
2022-10-16T22:41:30.405Z,25.53
2022-10-16T22:43:30.453Z,25.81
2022-10-16T22:45:30.520Z,25.72
2022-10-16T22:47:30.675Z,26.08
2022-10-16T22:49:30.410Z,25.88
2022-10-16T22:51:30.496Z,25.70
2022-10-16T22:53:30.544Z,26.14
2022-10-16T22:55:30.561Z,26.08
2022-10-16T22:57:30.422Z,26.06
2022-10-16T22:59:30.544Z,26.02
2022-10-16T23:01:30.549Z,25.52
2022-10-16T23:03:31.600Z,25.99
2022-10-16T23:05:30.520Z,25.65
2022-10-16T23:07:30.440Z,25.89
2022-10-16T23:09:30.566Z,26.02
2022-10-16T23:11:30.562Z,25.86
2022-10-16T23:13:30.471Z,25.72
2022-10-16T23:15:30.469Z,26.14
2022-10-16T23:17:30.572Z,25.91
2022-10-16T23:19:30.552Z,25.65
2022-10-16T23:21:30.584Z,26.14
2022-10-16T23:23:30.565Z,25.88
2022-10-16T23:25:30.512Z,25.82
2022-10-16T23:27:30.569Z,25.54
2022-10-16T23:29:30.515Z,25.47
2022-10-16T23:31:30.544Z,25.87
2022-10-16T23:33:30.592Z,25.74
2022-10-16T23:35:30.512Z,25.48
2022-10-16T23:37:30.417Z,25.53
2022-10-16T23:39:30.507Z,25.61
2022-10-16T23:41:30.613Z,25.47
2022-10-16T23:43:30.503Z,25.58
2022-10-16T23:45:30.502Z,25.98
2022-10-16T23:47:30.855Z,25.75
2022-10-16T23:49:31.558Z,25.83
2022-10-16T23:51:30.477Z,25.51
2022-10-16T23:53:30.422Z,26.07
2022-10-16T23:57:30.869Z,25.56
2022-10-16T23:59:30.555Z,25.99
